sensor_id;sensor_type;location;lat;lon;timestamp;temperature;humidity
8792;DHT22;4432;50.890;4.744;2022-09-02T00:00:47;16.80;99.90
8792;DHT22;4432;50.890;4.744;2022-09-02T00:03:14;16.70;99.90
8792;DHT22;4432;50.890;4.744;2022-09-02T00:05:40;16.70;99.90
8792;DHT22;4432;50.890;4.744;2022-09-02T00:08:06;16.70;99.90
8792;DHT22;4432;50.890;4.744;2022-09-02T00:10:41;16.70;99.90
8792;DHT22;4432;50.890;4.744;2022-09-02T00:13:09;16.70;99.90
8792;DHT22;4432;50.890;4.744;2022-09-02T00:15:36;16.60;99.90
8792;DHT22;4432;50.890;4.744;2022-09-02T00:18:02;16.60;99.90
8792;DHT22;4432;50.890;4.744;2022-09-02T00:20:29;16.50;99.90
8792;DHT22;4432;50.890;4.744;2022-09-02T00:22:56;16.50;99.90
8792;DHT22;4432;50.890;4.744;2022-09-02T00:25:22;16.50;99.90
8792;DHT22;4432;50.890;4.744;2022-09-02T00:27:48;16.40;99.90
8792;DHT22;4432;50.890;4.744;2022-09-02T00:30:14;16.40;99.90
8792;DHT22;4432;50.890;4.744;2022-09-02T00:32:40;16.40;99.90
8792;DHT22;4432;50.890;4.744;2022-09-02T00:35:07;16.40;99.90
8792;DHT22;4432;50.890;4.744;2022-09-02T00:37:34;16.40;99.90
8792;DHT22;4432;50.890;4.744;2022-09-02T00:40:01;16.40;99.90
8792;DHT22;4432;50.890;4.744;2022-09-02T00:42:28;16.30;99.90
8792;DHT22;4432;50.890;4.744;2022-09-02T00:44:53;16.30;99.90
8792;DHT22;4432;50.890;4.744;2022-09-02T00:47:19;16.30;99.90
8792;DHT22;4432;50.890;4.744;2022-09-02T00:49:50;16.30;99.90
8792;DHT22;4432;50.890;4.744;2022-09-02T00:52:23;16.30;99.90
8792;DHT22;4432;50.890;4.744;2022-09-02T00:55:03;16.30;99.90
8792;DHT22;4432;50.890;4.744;2022-09-02T00:57:33;16.30;99.90
8792;DHT22;4432;50.890;4.744;2022-09-02T01:00:14;16.40;99.90
8792;DHT22;4432;50.890;4.744;2022-09-02T01:02:47;16.40;99.90
8792;DHT22;4432;50.890;4.744;2022-09-02T01:05:16;16.30;99.90
8792;DHT22;4432;50.890;4.744;2022-09-02T01:07:43;16.30;99.90
8792;DHT22;4432;50.890;4.744;2022-09-02T01:10:14;16.40;99.90
8792;DHT22;4432;50.890;4.744;2022-09-02T01:12:40;16.40;99.90
8792;DHT22;4432;50.890;4.744;2022-09-02T01:15:08;16.50;99.90
8792;DHT22;4432;50.890;4.744;2022-09-02T01:17:37;16.50;99.90
8792;DHT22;4432;50.890;4.744;2022-09-02T01:20:08;16.50;99.90
8792;DHT22;4432;50.890;4.744;2022-09-02T01:22:37;16.50;99.90
8792;DHT22;4432;50.890;4.744;2022-09-02T01:25:09;16.40;99.90
8792;DHT22;4432;50.890;4.744;2022-09-02T01:27:35;16.30;99.90
8792;DHT22;4432;50.890;4.744;2022-09-02T01:30:02;16.20;99.90
8792;DHT22;4432;50.890;4.744;2022-09-02T01:32:29;16.10;99.90
8792;DHT22;4432;50.890;4.744;2022-09-02T01:34:55;16.10;99.90
8792;DHT22;4432;50.890;4.744;2022-09-02T01:37:21;16.00;99.90
8792;DHT22;4432;50.890;4.744;2022-09-02T01:39:47;16.00;99.90
8792;DHT22;4432;50.890;4.744;2022-09-02T01:42:14;15.90;99.90
8792;DHT22;4432;50.890;4.744;2022-09-02T01:44:40;15.90;99.90
8792;DHT22;4432;50.890;4.744;2022-09-02T01:47:13;15.90;99.90
8792;DHT22;4432;50.890;4.744;2022-09-02T01:49:40;15.80;99.90
8792;DHT22;4432;50.890;4.744;2022-09-02T01:52:06;15.80;99.90
8792;DHT22;4432;50.890;4.744;2022-09-02T01:54:32;15.80;99.90
8792;DHT22;4432;50.890;4.744;2022-09-02T01:56:57;15.70;99.90
8792;DHT22;4432;50.890;4.744;2022-09-02T01:59:23;15.70;99.90
8792;DHT22;4432;50.890;4.744;2022-09-02T02:01:49;15.60;99.90
8792;DHT22;4432;50.890;4.744;2022-09-02T02:04:15;15.80;99.90
8792;DHT22;4432;50.890;4.744;2022-09-02T02:06:42;15.80;99.90
8792;DHT22;4432;50.890;4.744;2022-09-02T02:09:10;15.90;99.90
8792;DHT22;4432;50.890;4.744;2022-09-02T02:11:36;15.90;99.90
8792;DHT22;4432;50.890;4.744;2022-09-02T02:14:02;16.00;99.90
8792;DHT22;4432;50.890;4.744;2022-09-02T02:16:28;16.00;99.90
8792;DHT22;4432;50.890;4.744;2022-09-02T02:18:54;16.00;99.90
8792;DHT22;4432;50.890;4.744;2022-09-02T02:21:19;15.90;99.90
8792;DHT22;4432;50.890;4.744;2022-09-02T02:23:45;15.90;99.90
8792;DHT22;4432;50.890;4.744;2022-09-02T02:26:11;15.80;99.90
8792;DHT22;4432;50.890;4.744;2022-09-02T02:28:37;15.80;99.90
8792;DHT22;4432;50.890;4.744;2022-09-02T02:31:03;15.80;99.90
8792;DHT22;4432;50.890;4.744;2022-09-02T02:33:29;15.70;99.90
8792;DHT22;4432;50.890;4.744;2022-09-02T02:35:55;15.70;99.90
8792;DHT22;4432;50.890;4.744;2022-09-02T02:38:22;15.70;99.90
8792;DHT22;4432;50.890;4.744;2022-09-02T02:40:48;15.60;99.90
8792;DHT22;4432;50.890;4.744;2022-09-02T02:43:14;15.60;99.90
8792;DHT22;4432;50.890;4.744;2022-09-02T02:45:40;15.50;99.90
8792;DHT22;4432;50.890;4.744;2022-09-02T02:48:06;15.50;99.90
8792;DHT22;4432;50.890;4.744;2022-09-02T02:50:32;15.50;99.90
8792;DHT22;4432;50.890;4.744;2022-09-02T02:52:57;15.70;99.90
8792;DHT22;4432;50.890;4.744;2022-09-02T02:55:27;15.70;99.90
8792;DHT22;4432;50.890;4.744;2022-09-02T02:57:53;15.70;99.90
8792;DHT22;4432;50.890;4.744;2022-09-02T03:00:25;15.70;99.90
8792;DHT22;4432;50.890;4.744;2022-09-02T03:02:59;15.70;99.90
8792;DHT22;4432;50.890;4.744;2022-09-02T03:05:25;15.70;99.90
8792;DHT22;4432;50.890;4.744;2022-09-02T03:07:51;15.70;99.90
8792;DHT22;4432;50.890;4.744;2022-09-02T03:10:18;15.70;99.90
8792;DHT22;4432;50.890;4.744;2022-09-02T03:12:44;15.70;99.90
8792;DHT22;4432;50.890;4.744;2022-09-02T03:15:16;15.70;99.90
8792;DHT22;4432;50.890;4.744;2022-09-02T03:17:46;15.70;99.90
8792;DHT22;4432;50.890;4.744;2022-09-02T03:20:14;15.70;99.90
8792;DHT22;4432;50.890;4.744;2022-09-02T03:22:45;15.70;99.90
8792;DHT22;4432;50.890;4.744;2022-09-02T03:25:14;15.70;99.90
8792;DHT22;4432;50.890;4.744;2022-09-02T03:27:40;15.70;99.90
8792;DHT22;4432;50.890;4.744;2022-09-02T03:30:14;15.80;99.90
8792;DHT22;4432;50.890;4.744;2022-09-02T03:32:40;15.80;99.90
8792;DHT22;4432;50.890;4.744;2022-09-02T03:35:08;15.90;99.90
8792;DHT22;4432;50.890;4.744;2022-09-02T03:37:35;15.90;99.90
8792;DHT22;4432;50.890;4.744;2022-09-02T03:40:06;15.90;99.90
8792;DHT22;4432;50.890;4.744;2022-09-02T03:42:32;15.90;99.90
8792;DHT22;4432;50.890;4.744;2022-09-02T03:44:58;15.90;99.90
8792;DHT22;4432;50.890;4.744;2022-09-02T03:47:23;15.90;99.90
8792;DHT22;4432;50.890;4.744;2022-09-02T03:49:49;16.00;99.90
8792;DHT22;4432;50.890;4.744;2022-09-02T03:52:15;16.00;99.90
8792;DHT22;4432;50.890;4.744;2022-09-02T03:54:41;16.00;99.90
8792;DHT22;4432;50.890;4.744;2022-09-02T03:57:07;16.00;99.90
8792;DHT22;4432;50.890;4.744;2022-09-02T03:59:33;16.00;99.90
8792;DHT22;4432;50.890;4.744;2022-09-02T04:02:00;16.00;99.90
8792;DHT22;4432;50.890;4.744;2022-09-02T04:04:28;16.00;99.90
8792;DHT22;4432;50.890;4.744;2022-09-02T04:06:54;16.00;99.90
8792;DHT22;4432;50.890;4.744;2022-09-02T04:09:19;16.00;99.90
8792;DHT22;4432;50.890;4.744;2022-09-02T04:11:46;16.00;99.90
8792;DHT22;4432;50.890;4.744;2022-09-02T04:14:12;16.10;99.90
8792;DHT22;4432;50.890;4.744;2022-09-02T04:16:38;16.10;99.90
8792;DHT22;4432;50.890;4.744;2022-09-02T04:19:04;16.10;99.90
8792;DHT22;4432;50.890;4.744;2022-09-02T04:21:35;16.00;99.90
8792;DHT22;4432;50.890;4.744;2022-09-02T04:24:01;16.00;99.90
8792;DHT22;4432;50.890;4.744;2022-09-02T04:26:27;16.00;99.90
8792;DHT22;4432;50.890;4.744;2022-09-02T04:28:53;16.00;99.90
8792;DHT22;4432;50.890;4.744;2022-09-02T04:31:20;16.00;99.90
8792;DHT22;4432;50.890;4.744;2022-09-02T04:33:46;16.10;99.90
8792;DHT22;4432;50.890;4.744;2022-09-02T04:36:14;16.00;99.90
8792;DHT22;4432;50.890;4.744;2022-09-02T04:38:40;16.00;99.90
8792;DHT22;4432;50.890;4.744;2022-09-02T04:41:11;16.10;99.90
8792;DHT22;4432;50.890;4.744;2022-09-02T04:43:37;16.00;99.90
8792;DHT22;4432;50.890;4.744;2022-09-02T04:46:08;16.00;99.90
8792;DHT22;4432;50.890;4.744;2022-09-02T04:48:35;16.00;99.90
8792;DHT22;4432;50.890;4.744;2022-09-02T04:51:06;16.00;99.90
8792;DHT22;4432;50.890;4.744;2022-09-02T04:53:32;16.10;99.90
8792;DHT22;4432;50.890;4.744;2022-09-02T04:55:58;16.20;99.90
8792;DHT22;4432;50.890;4.744;2022-09-02T04:58:24;16.20;99.90
8792;DHT22;4432;50.890;4.744;2022-09-02T05:00:49;16.30;99.90
8792;DHT22;4432;50.890;4.744;2022-09-02T05:03:15;16.30;99.90
8792;DHT22;4432;50.890;4.744;2022-09-02T05:05:41;16.40;99.90
8792;DHT22;4432;50.890;4.744;2022-09-02T05:08:07;16.40;99.90
8792;DHT22;4432;50.890;4.744;2022-09-02T05:10:33;16.40;99.90
8792;DHT22;4432;50.890;4.744;2022-09-02T05:12:59;16.40;99.90
8792;DHT22;4432;50.890;4.744;2022-09-02T05:15:25;16.40;99.90
8792;DHT22;4432;50.890;4.744;2022-09-02T05:17:51;16.30;99.90
8792;DHT22;4432;50.890;4.744;2022-09-02T05:20:17;16.30;99.90
8792;DHT22;4432;50.890;4.744;2022-09-02T05:22:43;16.30;99.90
8792;DHT22;4432;50.890;4.744;2022-09-02T05:25:09;16.20;99.90
8792;DHT22;4432;50.890;4.744;2022-09-02T05:27:35;16.20;99.90
8792;DHT22;4432;50.890;4.744;2022-09-02T05:30:02;16.20;99.90
8792;DHT22;4432;50.890;4.744;2022-09-02T05:32:28;16.20;99.90
8792;DHT22;4432;50.890;4.744;2022-09-02T05:34:54;16.20;99.90
8792;DHT22;4432;50.890;4.744;2022-09-02T05:37:21;16.20;99.90
8792;DHT22;4432;50.890;4.744;2022-09-02T05:39:47;16.20;99.90
8792;DHT22;4432;50.890;4.744;2022-09-02T05:42:13;16.20;99.90
8792;DHT22;4432;50.890;4.744;2022-09-02T05:44:38;16.10;99.90
8792;DHT22;4432;50.890;4.744;2022-09-02T05:47:05;16.20;99.90
8792;DHT22;4432;50.890;4.744;2022-09-02T05:49:30;16.20;99.90
8792;DHT22;4432;50.890;4.744;2022-09-02T05:51:58;16.30;99.90
8792;DHT22;4432;50.890;4.744;2022-09-02T05:54:33;16.30;99.90
8792;DHT22;4432;50.890;4.744;2022-09-02T05:57:06;16.30;99.90
8792;DHT22;4432;50.890;4.744;2022-09-02T05:59:34;16.30;99.90
8792;DHT22;4432;50.890;4.744;2022-09-02T06:02:05;16.30;99.90
8792;DHT22;4432;50.890;4.744;2022-09-02T06:04:31;16.40;99.90
8792;DHT22;4432;50.890;4.744;2022-09-02T06:06:57;16.50;99.90
8792;DHT22;4432;50.890;4.744;2022-09-02T06:09:23;16.70;99.90
8792;DHT22;4432;50.890;4.744;2022-09-02T06:11:50;16.90;99.90
8792;DHT22;4432;50.890;4.744;2022-09-02T06:14:19;17.20;99.90
8792;DHT22;4432;50.890;4.744;2022-09-02T06:16:46;17.40;99.90
8792;DHT22;4432;50.890;4.744;2022-09-02T06:19:12;17.90;99.90
8792;DHT22;4432;50.890;4.744;2022-09-02T06:21:38;18.90;99.90
8792;DHT22;4432;50.890;4.744;2022-09-02T06:24:06;20.00;99.90
8792;DHT22;4432;50.890;4.744;2022-09-02T06:26:32;21.00;99.90
8792;DHT22;4432;50.890;4.744;2022-09-02T06:28:58;22.00;99.90
8792;DHT22;4432;50.890;4.744;2022-09-02T06:31:25;22.80;99.90
8792;DHT22;4432;50.890;4.744;2022-09-02T06:33:53;23.20;99.90
8792;DHT22;4432;50.890;4.744;2022-09-02T06:36:21;23.10;99.90
8792;DHT22;4432;50.890;4.744;2022-09-02T06:38:49;22.70;99.90
8792;DHT22;4432;50.890;4.744;2022-09-02T06:41:18;22.10;99.90
8792;DHT22;4432;50.890;4.744;2022-09-02T06:43:44;21.60;99.90
8792;DHT22;4432;50.890;4.744;2022-09-02T06:46:20;21.10;99.90
8792;DHT22;4432;50.890;4.744;2022-09-02T06:48:47;20.60;99.90
8792;DHT22;4432;50.890;4.744;2022-09-02T06:51:40;20.40;99.90
8792;DHT22;4432;50.890;4.744;2022-09-02T06:54:09;20.30;99.90
8792;DHT22;4432;50.890;4.744;2022-09-02T06:56:36;20.30;99.90
8792;DHT22;4432;50.890;4.744;2022-09-02T06:59:02;20.40;99.90
8792;DHT22;4432;50.890;4.744;2022-09-02T07:01:30;20.50;99.90
8792;DHT22;4432;50.890;4.744;2022-09-02T07:03:56;20.60;99.90
8792;DHT22;4432;50.890;4.744;2022-09-02T07:06:47;20.80;99.90
8792;DHT22;4432;50.890;4.744;2022-09-02T07:09:17;20.80;99.90
8792;DHT22;4432;50.890;4.744;2022-09-02T07:11:43;20.80;99.90
8792;DHT22;4432;50.890;4.744;2022-09-02T07:14:16;20.80;99.90
8792;DHT22;4432;50.890;4.744;2022-09-02T07:16:48;21.00;99.90
8792;DHT22;4432;50.890;4.744;2022-09-02T07:19:14;21.00;99.90
8792;DHT22;4432;50.890;4.744;2022-09-02T07:21:40;21.10;99.90
8792;DHT22;4432;50.890;4.744;2022-09-02T07:24:07;21.40;99.90
8792;DHT22;4432;50.890;4.744;2022-09-02T07:26:34;21.50;99.90
8792;DHT22;4432;50.890;4.744;2022-09-02T07:28:59;21.30;99.90
8792;DHT22;4432;50.890;4.744;2022-09-02T07:31:25;21.30;99.90
8792;DHT22;4432;50.890;4.744;2022-09-02T07:33:55;21.50;99.90
8792;DHT22;4432;50.890;4.744;2022-09-02T07:36:25;21.50;99.90
8792;DHT22;4432;50.890;4.744;2022-09-02T07:38:51;21.40;99.90
8792;DHT22;4432;50.890;4.744;2022-09-02T07:41:19;21.50;99.90
8792;DHT22;4432;50.890;4.744;2022-09-02T07:43:46;21.70;99.90
8792;DHT22;4432;50.890;4.744;2022-09-02T07:46:12;21.70;99.90
8792;DHT22;4432;50.890;4.744;2022-09-02T07:48:39;22.10;99.90
8792;DHT22;4432;50.890;4.744;2022-09-02T07:51:05;22.30;99.90
8792;DHT22;4432;50.890;4.744;2022-09-02T07:53:33;22.40;99.90
8792;DHT22;4432;50.890;4.744;2022-09-02T07:55:59;22.10;99.90
8792;DHT22;4432;50.890;4.744;2022-09-02T07:58:26;22.00;99.90
8792;DHT22;4432;50.890;4.744;2022-09-02T08:00:53;22.00;99.90
8792;DHT22;4432;50.890;4.744;2022-09-02T08:03:22;22.00;99.90
8792;DHT22;4432;50.890;4.744;2022-09-02T08:05:48;21.90;99.90
8792;DHT22;4432;50.890;4.744;2022-09-02T08:08:16;22.00;99.90
8792;DHT22;4432;50.890;4.744;2022-09-02T08:10:46;22.00;99.90
8792;DHT22;4432;50.890;4.744;2022-09-02T08:13:12;22.10;99.90
8792;DHT22;4432;50.890;4.744;2022-09-02T08:15:38;22.20;99.90
8792;DHT22;4432;50.890;4.744;2022-09-02T08:18:05;22.40;99.90
8792;DHT22;4432;50.890;4.744;2022-09-02T08:20:32;22.40;99.90
8792;DHT22;4432;50.890;4.744;2022-09-02T08:22:58;22.60;99.90
8792;DHT22;4432;50.890;4.744;2022-09-02T08:25:24;22.60;99.90
8792;DHT22;4432;50.890;4.744;2022-09-02T08:27:50;22.70;99.90
8792;DHT22;4432;50.890;4.744;2022-09-02T08:30:17;22.80;99.90
8792;DHT22;4432;50.890;4.744;2022-09-02T08:32:43;22.90;99.90
8792;DHT22;4432;50.890;4.744;2022-09-02T08:35:09;22.50;99.90
8792;DHT22;4432;50.890;4.744;2022-09-02T08:37:36;22.50;99.90
8792;DHT22;4432;50.890;4.744;2022-09-02T08:40:04;22.30;99.90
8792;DHT22;4432;50.890;4.744;2022-09-02T08:42:32;22.40;99.90
8792;DHT22;4432;50.890;4.744;2022-09-02T08:48:09;22.70;99.90
8792;DHT22;4432;50.890;4.744;2022-09-02T08:50:39;22.80;99.90
8792;DHT22;4432;50.890;4.744;2022-09-02T08:53:24;23.00;99.90
8792;DHT22;4432;50.890;4.744;2022-09-02T08:55:54;23.10;99.90
8792;DHT22;4432;50.890;4.744;2022-09-02T08:58:31;23.10;99.90
8792;DHT22;4432;50.890;4.744;2022-09-02T09:18:00;24.90;97.40
8792;DHT22;4432;50.890;4.744;2022-09-02T09:20:37;24.60;97.60
8792;DHT22;4432;50.890;4.744;2022-09-02T09:25:46;25.40;95.70
8792;DHT22;4432;50.890;4.744;2022-09-02T09:28:12;25.80;95.30
8792;DHT22;4432;50.890;4.744;2022-09-02T09:30:38;26.60;92.60
8792;DHT22;4432;50.890;4.744;2022-09-02T09:33:04;25.70;90.50
8792;DHT22;4432;50.890;4.744;2022-09-02T09:35:48;25.90;90.80
8792;DHT22;4432;50.890;4.744;2022-09-02T09:38:16;26.20;86.20
8792;DHT22;4432;50.890;4.744;2022-09-02T09:41:09;26.60;85.30
8792;DHT22;4432;50.890;4.744;2022-09-02T09:43:35;26.20;79.30
8792;DHT22;4432;50.890;4.744;2022-09-02T09:46:20;26.00;79.70
8792;DHT22;4432;50.890;4.744;2022-09-02T09:48:48;26.60;73.00
8792;DHT22;4432;50.890;4.744;2022-09-02T09:51:14;27.00;72.00
8792;DHT22;4432;50.890;4.744;2022-09-02T09:53:40;27.00;65.80
8792;DHT22;4432;50.890;4.744;2022-09-02T10:01:22;26.80;64.70
8792;DHT22;4432;50.890;4.744;2022-09-02T10:09:01;27.20;54.90
8792;DHT22;4432;50.890;4.744;2022-09-02T10:11:35;27.00;51.50
8792;DHT22;4432;50.890;4.744;2022-09-02T10:14:03;26.80;51.70
8792;DHT22;4432;50.890;4.744;2022-09-02T10:16:51;27.00;49.50
8792;DHT22;4432;50.890;4.744;2022-09-02T10:27:52;27.50;46.40
8792;DHT22;4432;50.890;4.744;2022-09-02T10:30:24;27.70;42.50
8792;DHT22;4432;50.890;4.744;2022-09-02T10:38:09;27.80;40.10
8792;DHT22;4432;50.890;4.744;2022-09-02T10:40:49;27.70;39.70
8792;DHT22;4432;50.890;4.744;2022-09-02T10:46:00;26.90;37.90
8792;DHT22;4432;50.890;4.744;2022-09-02T10:56:57;27.30;34.30
8792;DHT22;4432;50.890;4.744;2022-09-02T11:02:28;27.70;28.70
8792;DHT22;4432;50.890;4.744;2022-09-02T11:05:33;27.60;29.10
8792;DHT22;4432;50.890;4.744;2022-09-02T11:08:00;27.70;29.10
8792;DHT22;4432;50.890;4.744;2022-09-02T11:10:48;27.90;27.40
8792;DHT22;4432;50.890;4.744;2022-09-02T11:13:30;27.80;28.00
8792;DHT22;4432;50.890;4.744;2022-09-02T11:16:10;27.90;27.20
8792;DHT22;4432;50.890;4.744;2022-09-02T11:19:04;27.90;26.00
8792;DHT22;4432;50.890;4.744;2022-09-02T11:24:27;28.00;25.40
8792;DHT22;4432;50.890;4.744;2022-09-02T11:32:55;28.10;22.90
8792;DHT22;4432;50.890;4.744;2022-09-02T11:35:31;28.20;22.80
8792;DHT22;4432;50.890;4.744;2022-09-02T11:43:45;28.30;18.70
8792;DHT22;4432;50.890;4.744;2022-09-02T11:46:19;28.30;17.80
8792;DHT22;4432;50.890;4.744;2022-09-02T11:49:06;28.10;17.30
8792;DHT22;4432;50.890;4.744;2022-09-02T11:54:17;28.20;18.30
8792;DHT22;4432;50.890;4.744;2022-09-02T11:56:56;28.40;18.10
8792;DHT22;4432;50.890;4.744;2022-09-02T12:02:44;28.70;16.10
8792;DHT22;4432;50.890;4.744;2022-09-02T12:08:05;28.30;14.00
8792;DHT22;4432;50.890;4.744;2022-09-02T12:21:27;28.30;13.20
8792;DHT22;4432;50.890;4.744;2022-09-02T12:26:23;28.60;12.60
8792;DHT22;4432;50.890;4.744;2022-09-02T12:28:51;28.70;12.70
8792;DHT22;4432;50.890;4.744;2022-09-02T12:31:41;28.80;11.80
8792;DHT22;4432;50.890;4.744;2022-09-02T12:36:55;28.30;12.10
8792;DHT22;4432;50.890;4.744;2022-09-02T12:45:05;27.60;10.50
8792;DHT22;4432;50.890;4.744;2022-09-02T12:55:35;29.10;9.50
8792;DHT22;4432;50.890;4.744;2022-09-02T12:58:13;29.00;9.00
8792;DHT22;4432;50.890;4.744;2022-09-02T13:00:55;28.70;9.30
8792;DHT22;4432;50.890;4.744;2022-09-02T13:14:57;29.30;7.40
8792;DHT22;4432;50.890;4.744;2022-09-02T13:32:24;29.90;7.00
8792;DHT22;4432;50.890;4.744;2022-09-02T13:34:53;29.80;5.80
8792;DHT22;4432;50.890;4.744;2022-09-02T13:39:53;29.30;3.90
8792;DHT22;4432;50.890;4.744;2022-09-02T13:42:23;29.50;4.70
8792;DHT22;4432;50.890;4.744;2022-09-02T13:44:49;29.70;3.80
8792;DHT22;4432;50.890;4.744;2022-09-02T13:47:16;29.80;3.30
8792;DHT22;4432;50.890;4.744;2022-09-02T13:49:50;29.80;2.80
8792;DHT22;4432;50.890;4.744;2022-09-02T13:52:19;29.60;3.20
8792;DHT22;4432;50.890;4.744;2022-09-02T13:54:48;29.50;3.00
8792;DHT22;4432;50.890;4.744;2022-09-02T13:57:23;29.80;2.80
8792;DHT22;4432;50.890;4.744;2022-09-02T13:59:51;29.80;2.40
8792;DHT22;4432;50.890;4.744;2022-09-02T14:02:29;29.70;2.40
8792;DHT22;4432;50.890;4.744;2022-09-02T14:05:04;29.80;2.60
8792;DHT22;4432;50.890;4.744;2022-09-02T14:07:44;30.10;2.70
8792;DHT22;4432;50.890;4.744;2022-09-02T14:10:14;30.10;1.60
8792;DHT22;4432;50.890;4.744;2022-09-02T14:12:42;30.10;1.30
8792;DHT22;4432;50.890;4.744;2022-09-02T14:15:12;30.00;1.40
8792;DHT22;4432;50.890;4.744;2022-09-02T14:17:39;29.80;2.00
8792;DHT22;4432;50.890;4.744;2022-09-02T14:20:18;29.90;2.10
8792;DHT22;4432;50.890;4.744;2022-09-02T14:22:55;29.80;1.00
8792;DHT22;4432;50.890;4.744;2022-09-02T14:25:23;29.80;1.10
8792;DHT22;4432;50.890;4.744;2022-09-02T14:27:57;29.50;1.00
8792;DHT22;4432;50.890;4.744;2022-09-02T14:30:34;29.40;1.10
8792;DHT22;4432;50.890;4.744;2022-09-02T14:33:27;29.50;1.00
8792;DHT22;4432;50.890;4.744;2022-09-02T14:36:28;29.40;1.20
8792;DHT22;4432;50.890;4.744;2022-09-02T14:39:06;29.60;1.00
8792;DHT22;4432;50.890;4.744;2022-09-02T14:41:33;29.40;1.10
8792;DHT22;4432;50.890;4.744;2022-09-02T14:44:26;29.30;1.40
8792;DHT22;4432;50.890;4.744;2022-09-02T14:47:04;29.40;1.20
8792;DHT22;4432;50.890;4.744;2022-09-02T14:49:44;29.40;1.50
8792;DHT22;4432;50.890;4.744;2022-09-02T14:54:49;29.20;1.00
8792;DHT22;4432;50.890;4.744;2022-09-02T14:57:26;29.10;1.00
8792;DHT22;4432;50.890;4.744;2022-09-02T14:59:58;28.90;1.00
8792;DHT22;4432;50.890;4.744;2022-09-02T15:04:58;29.00;1.00
8792;DHT22;4432;50.890;4.744;2022-09-02T15:07:24;29.00;1.00
8792;DHT22;4432;50.890;4.744;2022-09-02T15:09:51;29.00;1.00
8792;DHT22;4432;50.890;4.744;2022-09-02T15:12:49;29.10;1.00
8792;DHT22;4432;50.890;4.744;2022-09-02T15:15:17;29.20;1.00
8792;DHT22;4432;50.890;4.744;2022-09-02T15:17:42;29.30;1.00
8792;DHT22;4432;50.890;4.744;2022-09-02T15:20:09;29.10;1.00
8792;DHT22;4432;50.890;4.744;2022-09-02T15:22:35;29.10;1.00
8792;DHT22;4432;50.890;4.744;2022-09-02T15:25:01;29.10;1.00
8792;DHT22;4432;50.890;4.744;2022-09-02T15:27:29;29.10;1.00
8792;DHT22;4432;50.890;4.744;2022-09-02T15:29:54;29.20;1.00
8792;DHT22;4432;50.890;4.744;2022-09-02T15:32:20;29.30;1.10
8792;DHT22;4432;50.890;4.744;2022-09-02T15:34:46;29.20;1.40
8792;DHT22;4432;50.890;4.744;2022-09-02T15:37:12;29.20;1.20
8792;DHT22;4432;50.890;4.744;2022-09-02T15:39:38;29.20;1.00
8792;DHT22;4432;50.890;4.744;2022-09-02T15:42:03;29.10;1.10
8792;DHT22;4432;50.890;4.744;2022-09-02T15:44:29;28.90;1.00
8792;DHT22;4432;50.890;4.744;2022-09-02T15:46:55;28.80;1.00
8792;DHT22;4432;50.890;4.744;2022-09-02T15:49:22;28.50;1.10
8792;DHT22;4432;50.890;4.744;2022-09-02T15:51:49;28.20;1.30
8792;DHT22;4432;50.890;4.744;2022-09-02T15:54:19;28.00;1.40
8792;DHT22;4432;50.890;4.744;2022-09-02T15:56:46;27.90;1.70
8792;DHT22;4432;50.890;4.744;2022-09-02T15:59:16;27.70;1.60
8792;DHT22;4432;50.890;4.744;2022-09-02T16:01:45;27.60;2.20
8792;DHT22;4432;50.890;4.744;2022-09-02T16:04:12;27.50;1.40
8792;DHT22;4432;50.890;4.744;2022-09-02T16:06:40;27.60;1.80
8792;DHT22;4432;50.890;4.744;2022-09-02T16:09:07;27.60;1.80
8792;DHT22;4432;50.890;4.744;2022-09-02T16:11:36;27.70;1.70
8792;DHT22;4432;50.890;4.744;2022-09-02T16:14:02;27.70;2.10
8792;DHT22;4432;50.890;4.744;2022-09-02T16:16:28;27.70;2.40
8792;DHT22;4432;50.890;4.744;2022-09-02T16:18:55;27.70;2.40
8792;DHT22;4432;50.890;4.744;2022-09-02T16:21:21;27.70;3.10
8792;DHT22;4432;50.890;4.744;2022-09-02T16:23:47;27.70;3.60
8792;DHT22;4432;50.890;4.744;2022-09-02T16:26:14;27.60;4.00
8792;DHT22;4432;50.890;4.744;2022-09-02T16:28:43;27.60;3.90
8792;DHT22;4432;50.890;4.744;2022-09-02T16:31:11;27.70;3.70
8792;DHT22;4432;50.890;4.744;2022-09-02T16:33:38;27.70;3.80
8792;DHT22;4432;50.890;4.744;2022-09-02T16:36:05;27.70;4.20
8792;DHT22;4432;50.890;4.744;2022-09-02T16:38:31;27.70;4.30
8792;DHT22;4432;50.890;4.744;2022-09-02T16:40:59;27.70;4.40
8792;DHT22;4432;50.890;4.744;2022-09-02T16:43:25;27.60;4.00
8792;DHT22;4432;50.890;4.744;2022-09-02T16:45:54;27.60;4.80
8792;DHT22;4432;50.890;4.744;2022-09-02T16:48:21;27.50;4.90
8792;DHT22;4432;50.890;4.744;2022-09-02T16:50:48;27.40;4.70
8792;DHT22;4432;50.890;4.744;2022-09-02T16:53:14;27.10;4.90
8792;DHT22;4432;50.890;4.744;2022-09-02T16:55:42;27.00;5.30
8792;DHT22;4432;50.890;4.744;2022-09-02T16:58:08;26.80;5.60
8792;DHT22;4432;50.890;4.744;2022-09-02T17:00:38;26.60;5.60
8792;DHT22;4432;50.890;4.744;2022-09-02T17:03:05;26.40;6.10
8792;DHT22;4432;50.890;4.744;2022-09-02T17:05:32;26.30;6.30
8792;DHT22;4432;50.890;4.744;2022-09-02T17:07:58;26.10;6.30
8792;DHT22;4432;50.890;4.744;2022-09-02T17:10:30;26.00;6.60
8792;DHT22;4432;50.890;4.744;2022-09-02T17:12:56;25.90;6.90
8792;DHT22;4432;50.890;4.744;2022-09-02T17:15:23;25.80;7.40
8792;DHT22;4432;50.890;4.744;2022-09-02T17:17:51;25.80;7.70
8792;DHT22;4432;50.890;4.744;2022-09-02T17:20:17;25.70;8.00
8792;DHT22;4432;50.890;4.744;2022-09-02T17:22:43;25.60;8.00
8792;DHT22;4432;50.890;4.744;2022-09-02T17:25:10;25.50;8.40
8792;DHT22;4432;50.890;4.744;2022-09-02T17:27:36;25.40;8.60
8792;DHT22;4432;50.890;4.744;2022-09-02T17:30:09;25.30;9.30
8792;DHT22;4432;50.890;4.744;2022-09-02T17:32:40;25.20;9.20
8792;DHT22;4432;50.890;4.744;2022-09-02T17:35:10;25.10;9.40
8792;DHT22;4432;50.890;4.744;2022-09-02T17:37:36;25.00;10.00
8792;DHT22;4432;50.890;4.744;2022-09-02T17:40:07;24.90;10.10
8792;DHT22;4432;50.890;4.744;2022-09-02T17:42:56;24.80;10.40
8792;DHT22;4432;50.890;4.744;2022-09-02T17:45:22;24.70;10.60
8792;DHT22;4432;50.890;4.744;2022-09-02T17:47:48;24.60;11.00
8792;DHT22;4432;50.890;4.744;2022-09-02T17:50:14;24.50;11.30
8792;DHT22;4432;50.890;4.744;2022-09-02T17:52:40;24.40;11.80
8792;DHT22;4432;50.890;4.744;2022-09-02T17:55:05;24.30;12.20
8792;DHT22;4432;50.890;4.744;2022-09-02T18:00:18;24.00;12.50
8792;DHT22;4432;50.890;4.744;2022-09-02T18:19:09;23.30;15.20
8792;DHT22;4432;50.890;4.744;2022-09-02T18:22:06;23.20;15.30
8792;DHT22;4432;50.890;4.744;2022-09-02T18:24:56;23.10;15.40
8792;DHT22;4432;50.890;4.744;2022-09-02T18:27:53;23.00;15.00
8792;DHT22;4432;50.890;4.744;2022-09-02T18:30:20;23.10;15.10
8792;DHT22;4432;50.890;4.744;2022-09-02T18:41:04;23.10;14.50
8792;DHT22;4432;50.890;4.744;2022-09-02T18:46:20;23.00;14.90
8792;DHT22;4432;50.890;4.744;2022-09-02T18:48:47;22.90;14.70
8792;DHT22;4432;50.890;4.744;2022-09-02T18:51:26;22.90;14.60
8792;DHT22;4432;50.890;4.744;2022-09-02T18:54:00;22.90;14.60
8792;DHT22;4432;50.890;4.744;2022-09-02T18:56:32;22.90;14.70
8792;DHT22;4432;50.890;4.744;2022-09-02T18:59:07;22.80;14.70
8792;DHT22;4432;50.890;4.744;2022-09-02T19:01:47;22.70;14.80
8792;DHT22;4432;50.890;4.744;2022-09-02T19:04:13;22.70;14.70
8792;DHT22;4432;50.890;4.744;2022-09-02T19:06:39;22.60;14.90
8792;DHT22;4432;50.890;4.744;2022-09-02T19:09:10;22.50;15.00
8792;DHT22;4432;50.890;4.744;2022-09-02T19:11:37;22.50;15.00
8792;DHT22;4432;50.890;4.744;2022-09-02T19:16:47;22.40;15.00
8792;DHT22;4432;50.890;4.744;2022-09-02T19:19:13;22.30;15.50